createdAt,value
2023-01-26T00:02:02.840Z,102169.28
2023-01-26T00:04:30.398Z,102165.81
2023-01-26T00:06:57.895Z,102163.59
2023-01-26T00:09:25.481Z,102160.56
2023-01-26T00:11:53.046Z,102155.31
2023-01-26T00:14:21.983Z,102147.53
2023-01-26T00:16:49.571Z,102152.56
2023-01-26T00:19:17.151Z,102142.91
2023-01-26T00:21:44.662Z,102139.56
2023-01-26T00:24:12.273Z,102149.75
2023-01-26T00:26:39.829Z,102141.66
2023-01-26T00:29:07.370Z,102149.63
2023-01-26T00:31:36.424Z,102142.81
2023-01-26T00:34:04.109Z,102140.41
2023-01-26T00:36:31.644Z,102139.25
2023-01-26T00:38:59.218Z,102134.53
2023-01-26T00:41:44.373Z,102126.63
2023-01-26T00:44:11.960Z,102122.97
2023-01-26T00:46:40.905Z,102115.50
2023-01-26T00:49:08.684Z,102125.41
2023-01-26T00:51:36.266Z,102121.81
2023-01-26T00:54:05.112Z,102121.81
2023-01-26T00:56:32.671Z,102115.28
2023-01-26T00:59:00.217Z,102117.63
2023-01-26T01:01:27.761Z,102114.94
2023-01-26T01:03:56.647Z,102112.38
2023-01-26T01:06:24.261Z,102112.66
2023-01-26T01:08:51.973Z,102109.84
2023-01-26T01:11:19.668Z,102107.97
2023-01-26T01:13:47.318Z,102110.88
2023-01-26T01:16:17.064Z,102107.13
2023-01-26T01:18:45.123Z,102101.00
2023-01-26T01:21:16.859Z,102100.09
2023-01-26T01:23:45.044Z,102091.91
2023-01-26T01:26:13.289Z,102095.03
2023-01-26T01:28:41.382Z,102090.72
2023-01-26T01:31:11.831Z,102089.38
2023-01-26T01:33:40.204Z,102090.94
2023-01-26T01:36:11.135Z,102090.72
2023-01-26T01:38:40.705Z,102089.84
2023-01-26T01:41:08.872Z,102086.47
2023-01-26T01:43:36.854Z,102092.50
2023-01-26T01:46:08.618Z,102085.41
2023-01-26T01:48:39.569Z,102088.19
2023-01-26T01:51:13.218Z,102084.63
2023-01-26T01:53:46.274Z,102079.88
2023-01-26T01:56:19.037Z,102081.88
2023-01-26T01:58:47.425Z,102080.00
2023-01-26T02:01:15.093Z,102081.75
2023-01-26T02:03:48.077Z,102084.38
2023-01-26T02:06:20.920Z,102080.38
2023-01-26T02:08:52.163Z,102079.44
2023-01-26T02:11:24.207Z,102074.91
2023-01-26T02:13:53.008Z,102080.00
2023-01-26T02:16:21.021Z,102085.69
2023-01-26T02:18:48.797Z,102082.41
2023-01-26T02:21:19.249Z,102079.13
2023-01-26T02:24:02.646Z,102075.09
2023-01-26T02:26:34.659Z,102078.28
2023-01-26T02:29:05.408Z,102069.28
2023-01-26T02:31:33.291Z,102067.56
2023-01-26T02:34:00.910Z,102071.75
2023-01-26T02:36:31.305Z,102064.59
2023-01-26T02:39:17.461Z,102057.91
2023-01-26T02:42:04.789Z,102055.78
2023-01-26T02:44:33.268Z,102054.16
2023-01-26T02:47:00.953Z,102055.50
2023-01-26T02:49:46.880Z,102045.91
2023-01-26T02:52:16.810Z,102050.72
2023-01-26T02:55:03.514Z,102038.38
2023-01-26T02:57:34.306Z,102046.72
2023-01-26T03:00:02.235Z,102043.53
2023-01-26T03:02:31.751Z,102045.91
2023-01-26T03:04:59.302Z,102050.25
2023-01-26T03:07:28.446Z,102047.00
2023-01-26T03:09:56.088Z,102037.44
2023-01-26T03:12:23.642Z,102037.84
2023-01-26T03:15:17.183Z,102044.16
2023-01-26T03:17:44.889Z,102041.31
2023-01-26T03:20:30.706Z,102038.84
2023-01-26T03:23:16.025Z,102038.47
2023-01-26T03:26:13.316Z,102037.28
2023-01-26T03:28:40.999Z,102039.50
2023-01-26T03:31:09.899Z,102025.66
2023-01-26T03:33:37.584Z,102030.59
2023-01-26T03:36:05.928Z,102030.50
2023-01-26T03:38:33.514Z,102025.41
2023-01-26T03:41:18.479Z,102023.19
2023-01-26T03:44:03.586Z,102019.53
2023-01-26T03:46:50.488Z,102022.25
2023-01-26T03:49:35.888Z,102005.97
2023-01-26T03:52:25.372Z,102011.00
2023-01-26T03:55:10.614Z,102012.19
2023-01-26T03:57:38.214Z,102006.47
2023-01-26T04:00:06.774Z,102005.63
2023-01-26T04:02:59.134Z,102020.34
2023-01-26T04:05:44.912Z,102016.16
2023-01-26T04:08:22.749Z,102012.00
2023-01-26T04:10:53.010Z,102010.91
2023-01-26T04:13:40.280Z,102007.25
2023-01-26T04:16:28.858Z,102004.75
2023-01-26T04:19:15.377Z,102012.78
2023-01-26T04:21:42.943Z,102012.56
2023-01-26T04:24:17.154Z,102003.09
2023-01-26T04:26:45.743Z,102012.09
2023-01-26T04:29:19.064Z,102007.38
2023-01-26T04:31:47.844Z,102005.47
2023-01-26T04:34:21.793Z,102000.94
2023-01-26T04:36:49.721Z,102000.84
2023-01-26T04:39:18.673Z,101990.34
2023-01-26T04:41:49.557Z,101996.56
2023-01-26T04:44:18.101Z,101998.25
2023-01-26T04:46:48.746Z,101995.63
2023-01-26T04:49:16.360Z,101993.84
2023-01-26T04:51:45.332Z,102001.25
2023-01-26T04:54:13.416Z,101993.16
2023-01-26T04:56:44.418Z,101989.56
2023-01-26T04:59:12.055Z,101990.28
2023-01-26T05:01:42.017Z,101986.38
2023-01-26T05:04:12.746Z,101987.81
2023-01-26T05:06:43.105Z,101994.09
2023-01-26T05:09:12.658Z,101988.28
2023-01-26T05:11:42.516Z,101986.38
2023-01-26T05:14:41.806Z,101982.06
2023-01-26T05:17:41.473Z,101976.72
2023-01-26T05:20:36.713Z,101984.00
2023-01-26T05:23:18.267Z,101987.63
2023-01-26T05:26:06.358Z,101988.34
2023-01-26T05:28:46.819Z,101986.97
2023-01-26T05:31:14.742Z,101980.97
2023-01-26T05:33:42.294Z,101982.19
2023-01-26T05:36:12.810Z,101986.53
2023-01-26T05:38:41.832Z,101983.50
2023-01-26T05:41:10.694Z,101987.22
2023-01-26T05:44:05.265Z,101978.50
2023-01-26T05:46:37.534Z,101981.78
2023-01-26T05:49:06.198Z,101982.41
2023-01-26T05:51:33.981Z,101975.31
2023-01-26T05:54:01.664Z,101982.63
2023-01-26T05:56:30.638Z,101988.50
2023-01-26T05:59:02.087Z,101990.31
2023-01-26T06:01:29.976Z,101983.84
2023-01-26T06:04:01.400Z,101982.44
2023-01-26T06:06:36.185Z,101989.47
2023-01-26T06:09:27.335Z,101986.75
2023-01-26T06:12:15.599Z,101987.94
2023-01-26T06:14:51.882Z,101989.97
2023-01-26T06:17:20.655Z,101991.09
2023-01-26T06:19:52.417Z,101992.25
2023-01-26T06:22:20.293Z,101994.50
2023-01-26T06:24:50.444Z,101988.78
2023-01-26T06:27:19.500Z,101993.91
2023-01-26T06:29:49.580Z,101995.31
2023-01-26T06:32:17.816Z,101997.72
2023-01-26T06:34:48.369Z,101995.31
2023-01-26T06:37:15.976Z,102005.84
2023-01-26T06:39:44.765Z,102007.03
2023-01-26T06:42:13.057Z,102012.44
2023-01-26T06:44:41.933Z,102006.34
2023-01-26T06:47:09.524Z,102007.34
2023-01-26T06:49:39.323Z,102003.50
2023-01-26T06:52:26.292Z,101998.38
2023-01-26T06:54:59.349Z,101993.97
2023-01-26T06:57:45.341Z,101993.03
2023-01-26T07:00:46.517Z,101999.72
2023-01-26T07:03:14.568Z,101997.81
2023-01-26T07:05:42.140Z,101998.78
2023-01-26T07:08:09.720Z,102004.81
2023-01-26T07:10:37.624Z,102005.28
2023-01-26T07:13:06.030Z,102009.47
2023-01-26T07:15:33.894Z,102008.16
2023-01-26T07:18:02.742Z,102011.88
2023-01-26T07:20:30.420Z,102009.84
2023-01-26T07:23:00.258Z,102005.97
2023-01-26T07:25:28.139Z,102007.16
2023-01-26T07:27:58.930Z,102004.97
2023-01-26T07:30:26.837Z,102012.88
2023-01-26T07:32:54.391Z,102014.09
2023-01-26T07:35:23.229Z,102018.91
2023-01-26T07:37:50.727Z,102024.03
2023-01-26T07:40:18.926Z,102017.44
2023-01-26T07:42:47.000Z,102027.28
2023-01-26T07:45:19.543Z,102031.53
2023-01-26T07:47:47.988Z,102029.88
2023-01-26T07:50:15.901Z,102029.66
2023-01-26T07:52:44.799Z,102022.69
2023-01-26T07:55:12.344Z,102022.47
2023-01-26T07:57:39.846Z,102024.88
2023-01-26T08:00:09.508Z,102024.38
2023-01-26T08:02:40.496Z,102018.38
2023-01-26T08:05:08.985Z,102028.91
2023-01-26T08:07:36.652Z,102024.38
2023-01-26T08:10:06.515Z,102021.25
2023-01-26T08:12:39.013Z,102022.47
2023-01-26T08:15:09.119Z,102027.28
2023-01-26T08:17:36.669Z,102023.09
2023-01-26T08:20:04.436Z,102040.44
2023-01-26T08:22:31.991Z,102039.59
2023-01-26T08:24:59.471Z,102043.78
2023-01-26T08:27:28.467Z,102038.63
2023-01-26T08:29:56.259Z,102035.03
2023-01-26T08:32:23.942Z,102037.53
2023-01-26T08:34:51.446Z,102050.72
2023-01-26T08:37:18.971Z,102048.31
2023-01-26T08:39:46.531Z,102052.75
2023-01-26T08:42:14.066Z,102050.97
2023-01-26T08:44:42.915Z,102048.16
2023-01-26T08:47:10.485Z,102047.00
2023-01-26T08:49:38.062Z,102048.78
2023-01-26T08:52:05.952Z,102053.03
2023-01-26T08:54:33.466Z,102055.00
2023-01-26T08:57:00.964Z,102041.31
2023-01-26T08:59:28.480Z,102048.31
2023-01-26T09:01:57.419Z,102045.66
2023-01-26T09:04:27.237Z,102047.22
2023-01-26T09:06:55.050Z,102049.50
2023-01-26T09:09:22.743Z,102047.97
2023-01-26T09:11:50.295Z,102043.44
2023-01-26T09:14:17.801Z,102047.63
2023-01-26T09:16:45.332Z,102047.88
2023-01-26T09:19:14.283Z,102049.53
2023-01-26T09:21:41.916Z,102050.25
2023-01-26T09:24:09.887Z,102050.69
2023-01-26T09:26:37.634Z,102052.59
2023-01-26T09:29:05.230Z,102042.44
2023-01-26T09:31:32.843Z,102041.84
2023-01-26T09:34:00.412Z,102039.00
2023-01-26T09:36:29.355Z,102030.41
2023-01-26T09:38:57.677Z,102031.50
2023-01-26T09:41:44.290Z,102033.44
2023-01-26T09:44:18.051Z,102025.41
2023-01-26T09:46:56.369Z,102021.31
2023-01-26T09:49:30.230Z,102019.66
2023-01-26T09:52:05.789Z,102029.91
2023-01-26T09:54:38.833Z,102032.44
2023-01-26T09:57:14.452Z,102042.59
2023-01-26T09:59:49.595Z,102035.41
2023-01-26T10:02:26.581Z,102026.19
2023-01-26T10:04:58.055Z,102019.25
2023-01-26T10:07:27.641Z,102014.59
2023-01-26T10:09:56.458Z,102023.00
2023-01-26T10:12:26.307Z,102015.56
2023-01-26T10:14:59.080Z,102029.91
2023-01-26T10:17:31.168Z,102012.94
2023-01-26T10:20:03.695Z,102016.03
2023-01-26T10:22:41.486Z,102013.44
2023-01-26T10:25:16.722Z,102006.00
2023-01-26T10:27:45.938Z,102012.72
2023-01-26T10:30:15.672Z,102003.75
2023-01-26T10:32:45.091Z,101997.59
2023-01-26T10:35:19.795Z,102001.44
2023-01-26T10:37:49.420Z,102001.19
2023-01-26T10:40:18.398Z,101996.28
2023-01-26T10:42:56.672Z,101996.91
2023-01-26T10:45:28.861Z,102000.47
2023-01-26T10:48:19.864Z,102005.03
2023-01-26T10:50:48.438Z,102005.50
2023-01-26T10:53:19.940Z,102009.09
2023-01-26T10:56:01.729Z,102012.59
2023-01-26T10:58:45.162Z,102016.16
2023-01-26T11:01:15.487Z,102009.94
2023-01-26T11:03:43.859Z,102019.41
2023-01-26T11:06:16.357Z,102018.91
2023-01-26T11:08:45.441Z,102011.00
2023-01-26T11:11:26.324Z,102013.88
2023-01-26T11:14:12.501Z,102009.56
2023-01-26T11:16:41.302Z,102002.84
2023-01-26T11:19:14.731Z,102007.41
2023-01-26T11:21:47.497Z,101997.56
2023-01-26T11:24:22.084Z,101998.97
2023-01-26T11:27:22.316Z,101989.66
2023-01-26T11:30:16.827Z,101998.66
2023-01-26T11:32:52.914Z,101999.72
2023-01-26T11:35:32.022Z,101995.16
2023-01-26T11:38:12.048Z,101991.59
2023-01-26T11:40:49.399Z,101977.66
2023-01-26T11:43:41.852Z,101976.00
2023-01-26T11:46:23.573Z,101985.38
2023-01-26T11:49:04.367Z,101976.41
2023-01-26T11:51:49.543Z,101974.13
2023-01-26T11:54:32.117Z,101969.16
2023-01-26T11:57:09.742Z,101968.81
2023-01-26T11:59:40.608Z,101970.34
2023-01-26T12:02:27.927Z,101965.69
2023-01-26T12:04:57.129Z,101967.56
2023-01-26T12:07:30.364Z,101968.16
2023-01-26T12:10:03.549Z,101972.59
2023-01-26T12:12:38.536Z,101969.97
2023-01-26T12:15:13.668Z,101965.44
2023-01-26T12:17:52.034Z,101967.81
2023-01-26T12:20:28.285Z,101956.78
2023-01-26T12:23:02.773Z,101957.22
2023-01-26T12:25:35.148Z,101952.66
2023-01-26T12:28:13.605Z,101939.72
2023-01-26T12:30:47.930Z,101939.88
2023-01-26T12:33:15.993Z,101947.13
2023-01-26T12:36:00.560Z,101934.94
2023-01-26T12:38:40.323Z,101931.31
2023-01-26T12:41:15.168Z,101923.28
2023-01-26T12:43:56.998Z,101926.69
2023-01-26T12:46:27.996Z,101925.19
2023-01-26T12:49:03.122Z,101936.16
2023-01-26T12:51:34.100Z,101936.50
2023-01-26T12:54:05.438Z,101929.47
2023-01-26T12:56:38.612Z,101934.03
2023-01-26T12:59:39.242Z,101935.22
2023-01-26T13:02:12.521Z,101938.41
2023-01-26T13:04:41.577Z,101917.44
2023-01-26T13:07:28.375Z,101925.53
2023-01-26T13:10:25.486Z,101921.09
2023-01-26T13:12:55.682Z,101919.88
2023-01-26T13:15:26.918Z,101917.53
2023-01-26T13:17:57.382Z,101924.50
2023-01-26T13:20:42.243Z,101914.81
2023-01-26T13:23:37.992Z,101910.66
2023-01-26T13:26:40.955Z,101918.59
2023-01-26T13:29:32.800Z,101914.84
2023-01-26T13:32:23.355Z,101915.94
2023-01-26T13:34:54.697Z,101908.03
2023-01-26T13:37:27.224Z,101900.31
2023-01-26T13:39:59.850Z,101901.84
2023-01-26T13:42:33.812Z,101913.25
2023-01-26T13:45:06.316Z,101918.25
2023-01-26T13:47:39.847Z,101918.25
2023-01-26T13:53:01.531Z,101926.81
2023-01-26T13:55:32.967Z,101932.41
2023-01-26T13:58:13.591Z,101937.97
2023-01-26T14:00:41.664Z,101931.72
2023-01-26T14:03:22.236Z,101934.38
2023-01-26T14:05:54.981Z,101930.75
2023-01-26T14:08:24.549Z,101925.78
2023-01-26T14:10:53.146Z,101921.06
2023-01-26T14:13:25.184Z,101930.38
2023-01-26T14:15:57.532Z,101936.94
2023-01-26T14:18:25.303Z,101935.84
2023-01-26T14:20:59.563Z,101937.47
2023-01-26T14:23:35.738Z,101939.44
2023-01-26T14:26:05.395Z,101937.06
2023-01-26T14:28:36.007Z,101938.34
2023-01-26T14:31:11.589Z,101943.03
2023-01-26T14:33:39.422Z,101934.44
2023-01-26T14:36:07.963Z,101947.38
2023-01-26T14:38:44.250Z,101948.78
2023-01-26T14:41:18.357Z,101946.16
2023-01-26T14:43:45.993Z,101942.50
2023-01-26T14:46:18.810Z,101942.09
2023-01-26T14:48:52.177Z,101950.44
2023-01-26T14:51:22.903Z,101956.19
2023-01-26T14:53:55.168Z,101961.19
2023-01-26T14:56:30.724Z,101964.25
2023-01-26T14:58:58.293Z,101961.78
2023-01-26T15:01:27.439Z,101970.97
2023-01-26T15:04:01.016Z,101972.88
2023-01-26T15:06:30.993Z,101972.56
2023-01-26T15:09:03.286Z,101978.59
2023-01-26T15:11:52.862Z,101982.59
2023-01-26T15:14:34.429Z,101987.09
2023-01-26T15:17:02.314Z,101980.38
2023-01-26T15:19:34.190Z,101973.88
2023-01-26T15:22:01.777Z,101973.41
2023-01-26T15:24:30.704Z,101972.03
2023-01-26T15:27:06.227Z,101969.97
2023-01-26T15:29:35.523Z,101969.84
2023-01-26T15:32:03.636Z,101976.22
2023-01-26T15:34:34.670Z,101956.75
2023-01-26T15:37:02.882Z,101966.63
2023-01-26T15:39:31.727Z,101958.13
2023-01-26T15:42:06.716Z,101961.63
2023-01-26T15:44:34.291Z,101955.06
2023-01-26T15:47:01.779Z,101952.44
2023-01-26T15:49:29.357Z,101955.06
2023-01-26T15:51:56.844Z,101954.28
2023-01-26T15:54:24.413Z,101957.63
2023-01-26T15:56:53.308Z,101952.06
2023-01-26T15:59:20.864Z,101944.53
2023-01-26T16:01:48.647Z,101956.91
2023-01-26T16:04:16.166Z,101948.03
2023-01-26T16:06:43.760Z,101950.66
2023-01-26T16:09:11.263Z,101951.22
2023-01-26T16:11:45.217Z,101962.66
2023-01-26T16:14:15.028Z,101969.59
2023-01-26T16:16:42.646Z,101975.72
2023-01-26T16:19:10.211Z,101972.94
2023-01-26T16:21:41.036Z,101974.88
2023-01-26T16:24:11.561Z,101975.16
2023-01-26T16:26:39.155Z,101980.59
2023-01-26T16:29:06.654Z,101986.00
2023-01-26T16:31:36.574Z,102001.75
2023-01-26T16:34:04.347Z,101992.97
2023-01-26T16:36:31.896Z,102000.06
2023-01-26T16:38:59.417Z,101994.25
2023-01-26T16:41:28.654Z,102008.31
2023-01-26T16:43:57.745Z,102000.81
2023-01-26T16:46:25.693Z,102003.59
2023-01-26T16:48:55.068Z,102015.81
2023-01-26T16:51:26.447Z,102015.56
2023-01-26T16:53:55.324Z,102019.19
2023-01-26T16:56:24.203Z,102025.31
2023-01-26T16:58:52.073Z,102032.84
2023-01-26T17:01:22.100Z,102033.53
2023-01-26T17:03:50.482Z,102036.59
2023-01-26T17:06:20.651Z,102040.34
2023-01-26T17:08:48.476Z,102033.66
2023-01-26T17:11:18.472Z,102044.25
2023-01-26T17:13:46.484Z,102043.00
2023-01-26T17:16:16.331Z,102039.09
2023-01-26T17:18:44.975Z,102045.34
2023-01-26T17:21:12.954Z,102042.88
2023-01-26T17:23:44.360Z,102054.00
2023-01-26T17:26:13.127Z,102055.81
2023-01-26T17:28:40.654Z,102054.41
2023-01-26T17:31:10.498Z,102048.56
2023-01-26T17:33:38.366Z,102043.00
2023-01-26T17:36:07.670Z,102047.63
2023-01-26T17:38:35.590Z,102042.59
2023-01-26T17:41:05.429Z,102037.31
2023-01-26T17:43:33.033Z,102041.75
2023-01-26T17:46:06.335Z,102032.97
2023-01-26T17:48:37.288Z,102029.50
2023-01-26T17:51:08.750Z,102027.84
2023-01-26T17:53:38.243Z,102038.53
2023-01-26T17:56:08.660Z,102040.22
2023-01-26T17:58:36.470Z,102043.13
2023-01-26T18:01:06.043Z,102044.94
2023-01-26T18:03:33.785Z,102042.28
2023-01-26T18:06:01.336Z,102044.09
2023-01-26T18:08:29.151Z,102042.72
2023-01-26T18:11:00.730Z,102034.66
2023-01-26T18:13:31.270Z,102042.44
2023-01-26T18:15:59.655Z,102041.59
2023-01-26T18:18:29.570Z,102041.75
2023-01-26T18:20:57.303Z,102045.09
2023-01-26T18:23:25.627Z,102052.63
2023-01-26T18:25:53.244Z,102057.47
2023-01-26T18:28:20.755Z,102060.09
2023-01-26T18:30:49.749Z,102057.47
2023-01-26T18:33:17.328Z,102058.72
2023-01-26T18:35:44.998Z,102053.72
2023-01-26T18:38:12.561Z,102061.78
2023-01-26T18:40:40.438Z,102068.78
2023-01-26T18:43:08.042Z,102069.63
2023-01-26T18:45:35.723Z,102067.66
2023-01-26T18:48:04.988Z,102070.88
2023-01-26T18:50:32.625Z,102071.56
2023-01-26T18:53:00.114Z,102071.97
2023-01-26T18:55:27.734Z,102083.28
2023-01-26T18:57:55.359Z,102082.19
2023-01-26T19:00:23.334Z,102083.97
2023-01-26T19:02:50.899Z,102086.63
2023-01-26T19:05:19.804Z,102080.09
2023-01-26T19:07:47.344Z,102083.81
2023-01-26T19:10:14.893Z,102087.47
2023-01-26T19:12:42.440Z,102085.66
2023-01-26T19:15:11.315Z,102088.59
2023-01-26T19:17:39.018Z,102088.19
2023-01-26T19:20:07.742Z,102089.03
2023-01-26T19:22:36.582Z,102089.75
2023-01-26T19:25:04.464Z,102099.22
2023-01-26T19:27:32.047Z,102101.44
2023-01-26T19:29:59.558Z,102095.88
2023-01-26T19:32:27.110Z,102096.13
2023-01-26T19:34:54.636Z,102098.38
2023-01-26T19:37:22.177Z,102096.41
2023-01-26T19:39:51.202Z,102102.81
2023-01-26T19:42:18.760Z,102112.28
2023-01-26T19:44:46.302Z,102112.84
2023-01-26T19:47:13.846Z,102112.03
2023-01-26T19:49:41.364Z,102101.44
2023-01-26T19:52:08.852Z,102113.53
2023-01-26T19:54:36.450Z,102111.16
2023-01-26T19:57:05.371Z,102113.81
2023-01-26T19:59:32.873Z,102120.91
2023-01-26T20:02:00.421Z,102117.28
2023-01-26T20:04:27.957Z,102120.78
2023-01-26T20:06:55.509Z,102122.59
2023-01-26T20:09:23.112Z,102122.72
2023-01-26T20:11:50.597Z,102123.16
2023-01-26T20:14:20.558Z,102132.34
2023-01-26T20:16:48.151Z,102127.88
2023-01-26T20:19:15.849Z,102124.81
2023-01-26T20:21:43.385Z,102130.13
2023-01-26T20:24:13.827Z,102135.28
2023-01-26T20:26:43.299Z,102136.09
2023-01-26T20:29:14.187Z,102135.56
2023-01-26T20:31:43.372Z,102128.97
2023-01-26T20:34:11.405Z,102144.84
2023-01-26T20:36:40.303Z,102142.41
2023-01-26T20:39:09.519Z,102140.88
2023-01-26T20:41:37.020Z,102145.31
2023-01-26T20:44:06.771Z,102145.31
2023-01-26T20:46:36.328Z,102143.78
2023-01-26T20:49:05.723Z,102142.25
2023-01-26T20:51:35.772Z,102135.56
2023-01-26T20:54:06.067Z,102141.69
2023-01-26T20:56:34.235Z,102139.59
2023-01-26T20:59:01.858Z,102136.28
2023-01-26T21:01:30.160Z,102144.34
2023-01-26T21:03:57.702Z,102137.38
2023-01-26T21:06:27.005Z,102125.69
2023-01-26T21:08:57.589Z,102129.88
2023-01-26T21:11:27.329Z,102135.03
2023-01-26T21:13:56.057Z,102136.28
2023-01-26T21:16:24.117Z,102139.19
2023-01-26T21:18:51.917Z,102129.72
2023-01-26T21:21:21.451Z,102135.75
2023-01-26T21:23:51.273Z,102141.03
2023-01-26T21:26:22.316Z,102136.03
2023-01-26T21:28:51.704Z,102139.91
2023-01-26T21:31:20.354Z,102139.91
2023-01-26T21:33:49.087Z,102150.22
2023-01-26T21:36:18.687Z,102144.38
2023-01-26T21:38:47.921Z,102147.88
2023-01-26T21:41:36.809Z,102145.66
2023-01-26T21:44:06.870Z,102147.19
2023-01-26T21:46:35.324Z,102153.16
2023-01-26T21:49:03.372Z,102146.91
2023-01-26T21:51:45.298Z,102152.91
2023-01-26T21:54:13.155Z,102143.84
2023-01-26T21:56:42.043Z,102148.56
2023-01-26T21:59:11.341Z,102159.03
2023-01-26T22:01:40.811Z,102150.97
2023-01-26T22:04:10.384Z,102163.34
2023-01-26T22:06:38.407Z,102162.25
2023-01-26T22:09:06.987Z,102157.63
2023-01-26T22:11:34.760Z,102158.47
2023-01-26T22:14:03.746Z,102153.88
2023-01-26T22:16:31.371Z,102159.16
2023-01-26T22:18:58.946Z,102158.19
2023-01-26T22:21:26.528Z,102152.47
2023-01-26T22:23:54.397Z,102156.94
2023-01-26T22:26:23.342Z,102156.13
2023-01-26T22:28:52.167Z,102149.94
2023-01-26T22:31:23.292Z,102151.63
2023-01-26T22:33:51.323Z,102149.81
2023-01-26T22:36:19.549Z,102143.00
2023-01-26T22:38:47.199Z,102139.63
2023-01-26T22:41:19.447Z,102139.34
2023-01-26T22:43:48.034Z,102140.34
2023-01-26T22:46:17.316Z,102135.72
2023-01-26T22:48:46.612Z,102149.94
2023-01-26T22:51:18.131Z,102149.94
2023-01-26T22:53:46.168Z,102155.81
2023-01-26T22:56:13.874Z,102154.41
2023-01-26T22:58:56.633Z,102162.22
2023-01-26T23:01:25.912Z,102158.75
2023-01-26T23:03:56.081Z,102154.16
2023-01-26T23:06:24.396Z,102160.25
2023-01-26T23:08:52.133Z,102155.25
2023-01-26T23:11:22.343Z,102171.16
2023-01-26T23:13:51.673Z,102173.09
2023-01-26T23:16:19.702Z,102161.81
2023-01-26T23:18:47.279Z,102154.16
2023-01-26T23:21:16.266Z,102161.69
2023-01-26T23:23:43.780Z,102166.16
2023-01-26T23:26:11.633Z,102168.66
2023-01-26T23:28:41.900Z,102163.34
2023-01-26T23:31:09.990Z,102161.97
2023-01-26T23:33:38.589Z,102163.19
2023-01-26T23:36:08.313Z,102166.28
2023-01-26T23:38:37.261Z,102167.94
2023-01-26T23:41:06.406Z,102175.31
2023-01-26T23:43:33.955Z,102179.25
2023-01-26T23:46:01.558Z,102169.91
2023-01-26T23:48:29.305Z,102170.19
2023-01-26T23:50:57.751Z,102171.16
2023-01-26T23:53:25.704Z,102170.19
2023-01-26T23:55:54.828Z,102168.63
2023-01-26T23:58:22.381Z,102165.19
